createdAt,value
2022-10-01T00:01:49.991Z,99.36
2022-10-01T00:04:52.957Z,99.26
2022-10-01T00:07:55.951Z,99.30
2022-10-01T00:11:02.382Z,99.51
2022-10-01T00:14:10.766Z,99.76
2022-10-01T00:17:13.880Z,99.63
2022-10-01T00:20:17.098Z,99.58
2022-10-01T00:23:20.072Z,99.54
2022-10-01T00:26:27.291Z,99.49
2022-10-01T00:29:32.002Z,99.54
2022-10-01T00:32:35.142Z,99.46
2022-10-01T00:35:38.597Z,99.59
2022-10-01T00:38:42.323Z,99.46
2022-10-01T00:41:45.199Z,99.50
2022-10-01T00:44:49.827Z,99.74
2022-10-01T00:47:58.030Z,99.74
2022-10-01T00:51:01.242Z,99.79
2022-10-01T00:54:13.359Z,99.85
2022-10-01T00:57:21.994Z,99.85
2022-10-01T01:00:25.288Z,99.68
2022-10-01T01:03:28.776Z,99.61
2022-10-01T01:06:31.573Z,99.59
2022-10-01T01:09:37.876Z,99.67
2022-10-01T01:13:09.405Z,99.62
2022-10-01T01:16:27.961Z,99.60
2022-10-01T01:19:54.044Z,99.63
2022-10-01T01:23:32.115Z,99.48
2022-10-01T01:26:59.133Z,99.64
2022-10-01T01:30:06.518Z,99.78
2022-10-01T01:33:17.828Z,99.63
2022-10-01T01:36:32.411Z,99.72
2022-10-01T01:39:36.168Z,99.63
2022-10-01T01:42:43.088Z,99.58
2022-10-01T01:45:51.274Z,99.54
2022-10-01T01:48:57.830Z,99.58
2022-10-01T01:52:10.660Z,99.58
2022-10-01T01:55:13.424Z,99.47
2022-10-01T01:58:20.565Z,99.47
2022-10-01T02:01:32.763Z,99.42
2022-10-01T02:04:43.399Z,99.51
2022-10-01T02:07:55.119Z,99.61
2022-10-01T02:11:18.907Z,99.73
2022-10-01T02:14:32.780Z,100.00
2022-10-01T02:18:16.608Z,99.94
2022-10-01T02:21:38.428Z,99.93
2022-10-01T02:24:49.324Z,100.00
2022-10-01T02:27:59.598Z,99.97
2022-10-01T02:31:04.350Z,99.88
2022-10-01T02:34:12.402Z,99.91
2022-10-01T02:37:19.348Z,99.99
2022-10-01T02:40:26.531Z,99.98
2022-10-01T02:43:39.414Z,100.00
2022-10-01T02:47:09.015Z,99.96
2022-10-01T02:50:13.034Z,99.93
2022-10-01T02:53:32.625Z,99.86
2022-10-01T02:56:56.348Z,99.87
2022-10-01T03:00:13.226Z,99.90
2022-10-01T03:03:16.059Z,100.00
2022-10-01T03:06:18.689Z,100.00
2022-10-01T03:09:21.878Z,100.00
2022-10-01T03:12:24.516Z,100.00
2022-10-01T03:15:28.095Z,100.00
2022-10-01T03:18:31.284Z,100.00
2022-10-01T03:21:38.045Z,100.00
2022-10-01T03:24:47.272Z,100.00
2022-10-01T03:27:52.171Z,100.00
2022-10-01T03:31:10.264Z,100.00
2022-10-01T03:34:16.626Z,100.00
2022-10-01T03:37:19.123Z,100.00
2022-10-01T03:40:21.875Z,100.00
2022-10-01T03:43:24.567Z,99.94
2022-10-01T03:46:27.895Z,99.97
2022-10-01T03:49:30.675Z,99.87
2022-10-01T03:52:33.397Z,99.83
2022-10-01T03:55:36.954Z,99.85
2022-10-01T03:58:40.040Z,100.00
2022-10-01T04:01:43.867Z,99.97
2022-10-01T04:04:46.967Z,99.98
2022-10-01T04:07:49.973Z,99.97
2022-10-01T04:10:54.078Z,99.90
2022-10-01T04:14:00.713Z,99.89
2022-10-01T04:17:04.610Z,100.00
2022-10-01T04:20:15.701Z,99.95
2022-10-01T04:23:18.759Z,99.98
2022-10-01T04:26:21.287Z,100.00
2022-10-01T04:29:24.238Z,100.00
2022-10-01T04:32:26.980Z,100.00
2022-10-01T04:35:29.868Z,100.00
2022-10-01T04:38:32.492Z,100.00
2022-10-01T04:41:36.151Z,100.00
2022-10-01T04:44:39.607Z,100.00
2022-10-01T04:47:52.991Z,100.00
2022-10-01T04:50:55.533Z,100.00
2022-10-01T04:53:58.658Z,100.00
2022-10-01T04:57:01.302Z,100.00
2022-10-01T05:00:06.646Z,100.00
2022-10-01T05:03:17.148Z,100.00
2022-10-01T05:06:23.038Z,100.00
2022-10-01T05:09:32.000Z,100.00
2022-10-01T05:12:35.170Z,100.00
2022-10-01T05:15:38.561Z,100.00
2022-10-01T05:18:43.509Z,100.00
2022-10-01T05:21:46.514Z,100.00
2022-10-01T05:24:50.255Z,100.00
2022-10-01T05:27:53.163Z,100.00
2022-10-01T05:31:05.993Z,100.00
2022-10-01T05:34:09.987Z,100.00
2022-10-01T05:37:15.009Z,100.00
2022-10-01T05:40:22.046Z,100.00
2022-10-01T05:43:27.810Z,100.00
2022-10-01T05:46:38.024Z,100.00
2022-10-01T05:49:44.750Z,100.00
2022-10-01T05:52:54.024Z,100.00
2022-10-01T05:56:00.308Z,100.00
2022-10-01T05:59:05.032Z,100.00
2022-10-01T06:02:11.117Z,100.00
2022-10-01T06:05:22.739Z,100.00
2022-10-01T06:08:29.798Z,100.00
2022-10-01T06:11:42.057Z,100.00
2022-10-01T06:14:47.816Z,100.00
2022-10-01T06:17:51.193Z,100.00
2022-10-01T06:20:58.801Z,100.00
2022-10-01T06:24:12.026Z,100.00
2022-10-01T06:27:15.781Z,100.00
2022-10-01T06:30:18.749Z,100.00
2022-10-01T06:33:26.825Z,100.00
2022-10-01T06:36:37.721Z,100.00
2022-10-01T06:39:43.872Z,100.00
2022-10-01T06:42:54.797Z,100.00
2022-10-01T06:46:11.131Z,100.00
2022-10-01T06:49:15.813Z,100.00
2022-10-01T06:52:37.136Z,100.00
2022-10-01T06:55:48.704Z,100.00
2022-10-01T06:58:58.790Z,100.00
2022-10-01T07:06:26.163Z,100.00
2022-10-01T07:09:31.824Z,100.00
2022-10-01T07:12:38.392Z,100.00
2022-10-01T07:15:48.915Z,100.00
2022-10-01T07:18:52.454Z,100.00
2022-10-01T07:21:56.112Z,100.00
2022-10-01T07:25:01.536Z,100.00
2022-10-01T07:28:08.869Z,99.98
2022-10-01T07:31:15.118Z,99.87
2022-10-01T07:34:33.034Z,99.78
2022-10-01T07:37:37.800Z,99.62
2022-10-01T07:40:43.215Z,99.66
2022-10-01T07:43:54.963Z,99.56
2022-10-01T07:47:05.108Z,99.50
2022-10-01T07:50:10.836Z,99.47
2022-10-01T07:53:27.661Z,99.24
2022-10-01T07:56:33.801Z,99.13
2022-10-01T07:59:41.836Z,99.07
2022-10-01T08:02:56.866Z,99.08
2022-10-01T08:06:00.223Z,99.19
2022-10-01T08:09:18.711Z,99.42
2022-10-01T08:12:30.822Z,99.36
2022-10-01T08:15:36.083Z,99.35
2022-10-01T08:18:44.364Z,99.27
2022-10-01T08:21:47.744Z,99.43
2022-10-01T08:24:51.456Z,99.34
2022-10-01T08:28:09.203Z,99.31
2022-10-01T08:31:16.154Z,99.31
2022-10-01T08:34:20.339Z,99.18
2022-10-01T08:37:30.875Z,99.04
2022-10-01T08:40:42.276Z,99.03
2022-10-01T08:43:45.365Z,99.11
2022-10-01T08:46:51.456Z,99.14
2022-10-01T08:50:01.122Z,98.89
2022-10-01T08:53:12.051Z,98.47
2022-10-01T08:56:38.963Z,97.66
2022-10-01T09:00:00.853Z,97.21
2022-10-01T09:03:11.965Z,96.13
2022-10-01T09:06:23.066Z,96.25
2022-10-01T09:09:27.990Z,96.55
2022-10-01T09:12:52.084Z,96.55
2022-10-01T09:16:08.834Z,96.25
2022-10-01T09:19:40.785Z,95.65
2022-10-01T09:22:51.351Z,95.81
2022-10-01T09:25:57.659Z,95.82
2022-10-01T09:29:03.805Z,96.00
2022-10-01T09:32:18.811Z,96.23
2022-10-01T09:35:31.584Z,95.84
2022-10-01T09:38:49.172Z,95.76
2022-10-01T09:42:00.824Z,95.59
2022-10-01T09:45:11.793Z,95.35
2022-10-01T09:48:27.830Z,94.70
2022-10-01T09:51:44.193Z,92.51
2022-10-01T09:54:57.666Z,90.91
2022-10-01T09:58:10.777Z,89.78
2022-10-01T10:01:39.129Z,89.45
2022-10-01T10:04:44.023Z,86.31
2022-10-01T10:07:52.983Z,84.90
2022-10-01T10:11:00.938Z,83.19
2022-10-01T10:14:12.171Z,82.83
2022-10-01T10:17:18.291Z,83.35
2022-10-01T10:20:39.919Z,85.08
2022-10-01T10:23:50.782Z,84.97
2022-10-01T10:26:58.853Z,85.42
2022-10-01T10:30:14.924Z,86.51
2022-10-01T10:33:22.451Z,86.47
2022-10-01T10:36:29.840Z,86.57
2022-10-01T10:39:42.117Z,86.25
2022-10-01T10:42:58.584Z,86.74
2022-10-01T10:46:08.842Z,85.96
2022-10-01T10:49:17.688Z,86.55
2022-10-01T10:52:37.068Z,86.64
2022-10-01T10:55:42.885Z,86.90
2022-10-01T10:58:53.748Z,87.16
2022-10-01T11:02:08.140Z,87.60
2022-10-01T11:05:22.312Z,87.04
2022-10-01T11:08:31.751Z,86.36
2022-10-01T11:11:55.213Z,85.25
2022-10-01T11:15:36.012Z,85.04
2022-10-01T11:19:31.121Z,83.45
2022-10-01T11:23:01.717Z,83.88
2022-10-01T11:26:27.099Z,83.77
2022-10-01T11:30:12.881Z,84.08
2022-10-01T11:33:45.454Z,83.31
2022-10-01T11:37:10.955Z,81.63
2022-10-01T11:40:27.119Z,83.86
2022-10-01T11:43:41.822Z,82.20
2022-10-01T11:46:54.558Z,83.02
2022-10-01T11:50:15.709Z,82.78
2022-10-01T11:53:31.052Z,82.30
2022-10-01T11:57:00.838Z,82.82
2022-10-01T12:00:08.897Z,83.26
2022-10-01T12:03:29.830Z,82.89
2022-10-01T12:07:03.785Z,81.48
2022-10-01T12:10:40.750Z,82.09
2022-10-01T12:13:55.461Z,80.64
2022-10-01T12:17:12.843Z,81.11
2022-10-01T12:20:30.843Z,81.15
2022-10-01T12:24:11.717Z,81.18
2022-10-01T12:27:37.435Z,81.47
2022-10-01T12:30:51.825Z,81.99
2022-10-01T12:34:17.159Z,82.89
2022-10-01T12:38:08.874Z,82.87
2022-10-01T12:41:45.241Z,81.65
2022-10-01T12:45:26.004Z,82.16
2022-10-01T12:48:42.772Z,81.84
2022-10-01T12:52:37.918Z,82.32
2022-10-01T12:56:03.822Z,82.36
2022-10-01T12:59:44.893Z,82.92
2022-10-01T13:03:23.828Z,83.35
2022-10-01T13:06:49.813Z,83.89
2022-10-01T13:10:07.201Z,84.65
2022-10-01T13:13:35.792Z,85.03
2022-10-01T13:16:48.822Z,85.86
2022-10-01T13:20:21.375Z,86.86
2022-10-01T13:23:37.898Z,87.40
2022-10-01T13:26:57.850Z,88.85
2022-10-01T13:30:17.070Z,89.60
2022-10-01T13:33:32.914Z,90.23
2022-10-01T13:36:40.816Z,90.69
2022-10-01T13:39:47.840Z,91.80
2022-10-01T13:43:00.401Z,92.19
2022-10-01T13:46:09.021Z,92.12
2022-10-01T13:49:36.035Z,92.09
2022-10-01T13:52:41.799Z,91.31
2022-10-01T13:55:50.074Z,91.52
2022-10-01T13:58:55.072Z,92.09
2022-10-01T14:02:03.500Z,92.00
2022-10-01T14:05:16.844Z,92.25
2022-10-01T14:08:32.879Z,91.42
2022-10-01T14:12:05.350Z,91.16
2022-10-01T14:15:42.928Z,90.83
2022-10-01T14:18:56.983Z,90.93
2022-10-01T14:22:21.871Z,91.05
2022-10-01T14:25:51.435Z,91.76
2022-10-01T14:29:13.802Z,92.41
2022-10-01T14:32:54.800Z,90.12
2022-10-01T14:36:45.426Z,89.98
2022-10-01T14:40:12.257Z,89.46
2022-10-01T14:43:32.159Z,89.67
2022-10-01T14:46:37.523Z,88.53
2022-10-01T14:49:41.769Z,88.56
2022-10-01T14:52:55.960Z,88.85
2022-10-01T14:56:10.513Z,88.77
2022-10-01T14:59:41.093Z,89.12
2022-10-01T15:03:01.833Z,89.88
2022-10-01T15:06:21.026Z,89.65
2022-10-01T15:09:35.819Z,90.05
2022-10-01T15:12:42.016Z,90.38
2022-10-01T15:15:45.063Z,90.15
2022-10-01T15:19:07.828Z,89.71
2022-10-01T15:22:16.784Z,89.69
2022-10-01T15:25:25.789Z,90.17
2022-10-01T15:28:34.764Z,89.62
2022-10-01T15:31:40.061Z,89.45
2022-10-01T15:34:54.273Z,89.69
2022-10-01T15:38:09.888Z,89.81
2022-10-01T15:41:40.392Z,90.61
2022-10-01T15:44:50.351Z,90.48
2022-10-01T15:47:58.569Z,90.45
2022-10-01T15:51:18.126Z,90.83
2022-10-01T15:54:22.548Z,90.87
2022-10-01T15:57:33.834Z,90.44
2022-10-01T16:01:00.114Z,90.19
2022-10-01T16:04:07.771Z,90.77
2022-10-01T16:07:26.278Z,90.43
2022-10-01T16:10:41.800Z,90.61
2022-10-01T16:13:50.738Z,90.81
2022-10-01T16:17:27.227Z,90.60
2022-10-01T16:20:36.949Z,90.69
2022-10-01T16:23:43.894Z,90.87
2022-10-01T16:26:48.198Z,90.90
2022-10-01T16:30:12.108Z,90.29
2022-10-01T16:33:29.205Z,90.16
2022-10-01T16:36:45.871Z,90.12
2022-10-01T16:39:50.208Z,90.96
2022-10-01T16:43:03.700Z,90.58
2022-10-01T16:46:08.320Z,90.50
2022-10-01T16:49:14.385Z,90.32
2022-10-01T16:52:24.748Z,90.41
2022-10-01T16:55:39.512Z,90.62
2022-10-01T16:58:52.906Z,90.94
2022-10-01T17:01:58.829Z,91.32
2022-10-01T17:05:08.819Z,91.38
2022-10-01T17:08:20.810Z,91.37
2022-10-01T17:11:32.093Z,91.58
2022-10-01T17:14:41.791Z,91.49
2022-10-01T17:17:47.062Z,91.04
2022-10-01T17:20:50.815Z,90.52
2022-10-01T17:24:04.901Z,90.46
2022-10-01T17:27:11.820Z,90.52
2022-10-01T17:30:18.142Z,90.35
2022-10-01T17:33:22.841Z,89.96
2022-10-01T17:36:28.137Z,89.32
2022-10-01T17:39:34.840Z,89.46
2022-10-01T17:42:52.001Z,88.91
2022-10-01T17:46:12.832Z,89.19
2022-10-01T17:49:20.849Z,88.90
2022-10-01T17:52:27.014Z,87.89
2022-10-01T17:55:37.933Z,88.05
2022-10-01T17:58:47.112Z,87.40
2022-10-01T18:05:15.224Z,85.74
2022-10-01T18:08:29.551Z,86.97
2022-10-01T18:11:44.148Z,86.81
2022-10-01T18:14:47.266Z,87.12
2022-10-01T18:18:58.734Z,86.87
2022-10-01T18:21:25.739Z,86.78
2022-10-01T18:24:35.001Z,86.57
2022-10-01T18:27:41.800Z,86.90
2022-10-01T18:31:18.883Z,87.01
2022-10-01T18:34:37.994Z,87.84
2022-10-01T18:37:57.946Z,87.29
2022-10-01T18:41:24.403Z,87.14
2022-10-01T18:44:28.416Z,87.33
2022-10-01T18:47:46.808Z,87.45
2022-10-01T18:51:30.046Z,86.32
2022-10-01T18:54:51.935Z,86.15
2022-10-01T18:58:32.945Z,86.20
2022-10-01T19:02:03.290Z,86.11
2022-10-01T19:05:58.208Z,85.45
2022-10-01T19:09:10.046Z,85.12
2022-10-01T19:13:07.849Z,84.62
2022-10-01T19:16:19.856Z,85.25
2022-10-01T19:19:41.972Z,84.67
2022-10-01T19:23:07.079Z,85.20
2022-10-01T19:26:31.152Z,85.22
2022-10-01T19:30:01.629Z,85.25
2022-10-01T19:33:21.128Z,84.36
2022-10-01T19:36:34.362Z,84.43
2022-10-01T19:39:45.086Z,84.10
2022-10-01T19:43:01.870Z,83.75
2022-10-01T19:46:16.819Z,84.09
2022-10-01T19:49:35.373Z,83.86
2022-10-01T19:52:51.496Z,84.84
2022-10-01T19:56:03.172Z,85.92
2022-10-01T19:59:29.762Z,86.23
2022-10-01T20:02:41.933Z,86.66
2022-10-01T20:05:54.834Z,87.07
2022-10-01T20:09:14.909Z,87.45
2022-10-01T20:12:31.087Z,86.83
2022-10-01T20:15:45.078Z,86.66
2022-10-01T20:19:16.155Z,86.33
2022-10-01T20:22:36.973Z,86.87
2022-10-01T20:25:58.176Z,87.66
2022-10-01T20:29:34.915Z,87.95
2022-10-01T20:33:12.022Z,87.42
2022-10-01T20:40:56.193Z,86.48
2022-10-01T20:44:09.337Z,86.31
2022-10-01T20:47:37.838Z,85.52
2022-10-01T20:50:54.211Z,85.45
2022-10-01T20:55:17.131Z,84.95
2022-10-01T20:58:36.002Z,83.49
2022-10-01T21:02:10.002Z,83.40
2022-10-01T21:05:54.211Z,82.69
2022-10-01T21:09:37.334Z,82.14
2022-10-01T21:12:48.336Z,82.02
2022-10-01T21:16:16.410Z,81.22
2022-10-01T21:20:02.401Z,81.22
2022-10-01T21:23:50.931Z,80.97
2022-10-01T21:27:25.934Z,80.61
2022-10-01T21:30:53.475Z,80.85
2022-10-01T21:34:22.835Z,80.57
2022-10-01T21:37:36.633Z,81.22
2022-10-01T21:40:51.355Z,81.37
2022-10-01T21:44:35.252Z,81.63
2022-10-01T21:47:58.889Z,82.37
2022-10-01T21:51:48.804Z,82.59
2022-10-01T21:54:52.848Z,83.43
2022-10-01T21:58:26.711Z,84.42
2022-10-01T22:01:55.550Z,85.28
2022-10-01T22:05:24.586Z,86.31
2022-10-01T22:08:46.192Z,86.58
2022-10-01T22:11:53.934Z,86.56
2022-10-01T22:14:59.469Z,87.00
2022-10-01T22:18:09.054Z,87.02
2022-10-01T22:21:18.169Z,87.19
2022-10-01T22:24:26.825Z,88.04
2022-10-01T22:27:50.694Z,89.11
2022-10-01T22:30:56.380Z,88.83
2022-10-01T22:34:09.406Z,89.23
2022-10-01T22:37:17.398Z,89.20
2022-10-01T22:40:35.920Z,88.92
2022-10-01T22:43:43.217Z,88.25
2022-10-01T22:47:04.230Z,88.62
2022-10-01T22:50:25.703Z,88.58
2022-10-01T22:53:55.212Z,88.89
2022-10-01T22:57:07.493Z,88.85
2022-10-01T23:00:14.884Z,88.13
2022-10-01T23:03:35.982Z,88.24
2022-10-01T23:07:11.929Z,88.42
2022-10-01T23:10:36.865Z,88.74
2022-10-01T23:13:56.626Z,89.04
2022-10-01T23:17:05.859Z,88.77
2022-10-01T23:20:28.097Z,88.45
2022-10-01T23:23:33.034Z,88.35
2022-10-01T23:26:51.855Z,88.00
2022-10-01T23:30:07.972Z,88.33
2022-10-01T23:33:33.305Z,89.09
2022-10-01T23:36:47.530Z,89.49
2022-10-01T23:39:52.863Z,88.86
2022-10-01T23:43:09.985Z,89.82
2022-10-01T23:46:31.753Z,90.10
2022-10-01T23:49:40.059Z,90.16
2022-10-01T23:52:52.838Z,89.95
2022-10-01T23:56:31.071Z,89.94
2022-10-01T23:59:46.073Z,90.12
